sensor_id;sensor_type;location;lat;lon;timestamp;P1;durP1;ratioP1;P2;durP2;ratioP2
75071;SDS011;63651;55.728;38.022;2023-11-21T00:01:04;3.15;;;1.98;;
75071;SDS011;63651;55.728;38.022;2023-11-21T00:06:06;3.22;;;1.73;;
75071;SDS011;63651;55.728;38.022;2023-11-21T00:11:10;2.83;;;1.90;;
75071;SDS011;63651;55.728;38.022;2023-11-21T00:16:11;2.95;;;2.00;;
75071;SDS011;63651;55.728;38.022;2023-11-21T00:21:12;3.53;;;2.25;;
75071;SDS011;63651;55.728;38.022;2023-11-21T00:26:13;2.72;;;1.85;;
75071;SDS011;63651;55.728;38.022;2023-11-21T00:31:14;2.90;;;1.90;;
75071;SDS011;63651;55.728;38.022;2023-11-21T00:36:15;3.70;;;2.00;;
75071;SDS011;63651;55.728;38.022;2023-11-21T00:41:17;2.72;;;1.98;;
75071;SDS011;63651;55.728;38.022;2023-11-21T00:46:18;3.38;;;2.38;;
75071;SDS011;63651;55.728;38.022;2023-11-21T00:51:19;2.75;;;1.80;;
75071;SDS011;63651;55.728;38.022;2023-11-21T00:56:21;2.53;;;2.10;;
75071;SDS011;63651;55.728;38.022;2023-11-21T01:01:22;3.17;;;2.13;;
75071;SDS011;63651;55.728;38.022;2023-11-21T01:06:25;4.32;;;1.92;;
75071;SDS011;63651;55.728;38.022;2023-11-21T01:11:26;2.88;;;2.05;;
75071;SDS011;63651;55.728;38.022;2023-11-21T01:16:27;4.20;;;2.08;;
75071;SDS011;63651;55.728;38.022;2023-11-21T01:21:28;2.63;;;1.75;;
75071;SDS011;63651;55.728;38.022;2023-11-21T01:26:29;4.15;;;2.20;;
75071;SDS011;63651;55.728;38.022;2023-11-21T01:31:30;3.28;;;1.73;;
75071;SDS011;63651;55.728;38.022;2023-11-21T01:36:32;2.40;;;1.83;;
75071;SDS011;63651;55.728;38.022;2023-11-21T01:41:33;3.38;;;2.28;;
75071;SDS011;63651;55.728;38.022;2023-11-21T01:46:35;3.25;;;1.98;;
75071;SDS011;63651;55.728;38.022;2023-11-21T01:51:38;2.10;;;1.80;;
75071;SDS011;63651;55.728;38.022;2023-11-21T01:56:41;2.95;;;1.80;;
75071;SDS011;63651;55.728;38.022;2023-11-21T02:02:00;1.98;;;1.52;;
75071;SDS011;63651;55.728;38.022;2023-11-21T02:07:20;1.98;;;1.40;;
75071;SDS011;63651;55.728;38.022;2023-11-21T02:12:42;3.08;;;1.73;;
75071;SDS011;63651;55.728;38.022;2023-11-21T02:36:50;2.25;;;1.70;;
75071;SDS011;63651;55.728;38.022;2023-11-21T02:42:10;2.38;;;1.42;;
75071;SDS011;63651;55.728;38.022;2023-11-21T02:47:29;3.00;;;1.77;;
75071;SDS011;63651;55.728;38.022;2023-11-21T02:52:49;2.83;;;1.60;;
75071;SDS011;63651;55.728;38.022;2023-11-21T02:58:10;2.40;;;1.55;;
75071;SDS011;63651;55.728;38.022;2023-11-21T03:03:29;3.58;;;1.70;;
75071;SDS011;63651;55.728;38.022;2023-11-21T03:08:48;3.05;;;1.52;;
75071;SDS011;63651;55.728;38.022;2023-11-21T03:14:08;3.08;;;1.90;;
75071;SDS011;63651;55.728;38.022;2023-11-21T03:19:28;4.65;;;1.52;;
75071;SDS011;63651;55.728;38.022;2023-11-21T03:24:47;2.05;;;1.50;;
75071;SDS011;63651;55.728;38.022;2023-11-21T03:30:07;2.20;;;1.50;;
75071;SDS011;63651;55.728;38.022;2023-11-21T03:35:27;3.05;;;1.60;;
75071;SDS011;63651;55.728;38.022;2023-11-21T03:40:47;3.25;;;1.80;;
75071;SDS011;63651;55.728;38.022;2023-11-21T03:46:06;2.00;;;1.50;;
75071;SDS011;63651;55.728;38.022;2023-11-21T03:51:27;14.75;;;3.58;;
75071;SDS011;63651;55.728;38.022;2023-11-21T03:56:46;45.90;;;8.90;;
75071;SDS011;63651;55.728;38.022;2023-11-21T04:02:05;26.38;;;7.10;;
75071;SDS011;63651;55.728;38.022;2023-11-21T04:07:26;15.43;;;4.55;;
75071;SDS011;63651;55.728;38.022;2023-11-21T04:12:46;10.02;;;4.13;;
75071;SDS011;63651;55.728;38.022;2023-11-21T04:18:06;15.60;;;3.55;;
75071;SDS011;63651;55.728;38.022;2023-11-21T04:23:26;10.63;;;2.88;;
75071;SDS011;63651;55.728;38.022;2023-11-21T04:28:46;10.43;;;3.17;;
75071;SDS011;63651;55.728;38.022;2023-11-21T04:33:47;6.22;;;2.53;;
75071;SDS011;63651;55.728;38.022;2023-11-21T04:38:48;11.57;;;2.88;;
75071;SDS011;63651;55.728;38.022;2023-11-21T04:43:49;7.50;;;2.35;;
75071;SDS011;63651;55.728;38.022;2023-11-21T04:48:50;9.23;;;2.75;;
75071;SDS011;63651;55.728;38.022;2023-11-21T04:53:51;7.55;;;2.55;;
75071;SDS011;63651;55.728;38.022;2023-11-21T04:58:53;6.13;;;2.15;;
75071;SDS011;63651;55.728;38.022;2023-11-21T05:03:54;6.45;;;2.03;;
75071;SDS011;63651;55.728;38.022;2023-11-21T05:08:59;7.63;;;3.22;;
75071;SDS011;63651;55.728;38.022;2023-11-21T05:14:00;3.80;;;2.20;;
75071;SDS011;63651;55.728;38.022;2023-11-21T05:19:03;3.30;;;1.88;;
75071;SDS011;63651;55.728;38.022;2023-11-21T05:24:04;4.13;;;2.00;;
75071;SDS011;63651;55.728;38.022;2023-11-21T05:29:06;4.30;;;1.90;;
75071;SDS011;63651;55.728;38.022;2023-11-21T05:34:07;4.32;;;1.95;;
75071;SDS011;63651;55.728;38.022;2023-11-21T05:39:08;3.40;;;1.77;;
75071;SDS011;63651;55.728;38.022;2023-11-21T05:44:09;2.78;;;1.67;;
75071;SDS011;63651;55.728;38.022;2023-11-21T05:49:10;3.88;;;1.90;;
75071;SDS011;63651;55.728;38.022;2023-11-21T05:54:11;3.55;;;1.80;;
75071;SDS011;63651;55.728;38.022;2023-11-21T05:59:12;2.58;;;1.67;;
75071;SDS011;63651;55.728;38.022;2023-11-21T06:04:13;2.17;;;1.35;;
75071;SDS011;63651;55.728;38.022;2023-11-21T06:09:15;3.22;;;1.73;;
75071;SDS011;63651;55.728;38.022;2023-11-21T06:14:16;2.70;;;1.48;;
75071;SDS011;63651;55.728;38.022;2023-11-21T06:19:18;3.05;;;1.60;;
75071;SDS011;63651;55.728;38.022;2023-11-21T06:24:19;2.58;;;1.50;;
75071;SDS011;63651;55.728;38.022;2023-11-21T06:29:21;2.78;;;1.50;;
75071;SDS011;63651;55.728;38.022;2023-11-21T06:34:22;2.30;;;1.50;;
75071;SDS011;63651;55.728;38.022;2023-11-21T06:39:24;3.08;;;1.38;;
75071;SDS011;63651;55.728;38.022;2023-11-21T06:44:25;2.55;;;1.60;;
75071;SDS011;63651;55.728;38.022;2023-11-21T06:49:26;5.18;;;1.55;;
75071;SDS011;63651;55.728;38.022;2023-11-21T06:54:27;3.17;;;1.52;;
75071;SDS011;63651;55.728;38.022;2023-11-21T06:59:28;6.18;;;2.00;;
75071;SDS011;63651;55.728;38.022;2023-11-21T07:04:29;2.28;;;1.52;;
75071;SDS011;63651;55.728;38.022;2023-11-21T07:09:30;3.40;;;1.70;;
75071;SDS011;63651;55.728;38.022;2023-11-21T07:14:32;3.05;;;1.73;;
75071;SDS011;63651;55.728;38.022;2023-11-21T07:19:33;3.30;;;1.48;;
75071;SDS011;63651;55.728;38.022;2023-11-21T07:24:35;2.25;;;1.70;;
75071;SDS011;63651;55.728;38.022;2023-11-21T07:29:37;3.35;;;1.73;;
75071;SDS011;63651;55.728;38.022;2023-11-21T07:34:38;3.42;;;1.73;;
75071;SDS011;63651;55.728;38.022;2023-11-21T07:39:39;14.75;;;9.77;;
75071;SDS011;63651;55.728;38.022;2023-11-21T07:44:42;5.18;;;3.13;;
75071;SDS011;63651;55.728;38.022;2023-11-21T07:49:43;3.97;;;1.98;;
75071;SDS011;63651;55.728;38.022;2023-11-21T07:54:45;3.42;;;2.17;;
75071;SDS011;63651;55.728;38.022;2023-11-21T07:59:46;3.97;;;1.70;;
75071;SDS011;63651;55.728;38.022;2023-11-21T08:04:47;3.33;;;1.80;;
75071;SDS011;63651;55.728;38.022;2023-11-21T08:09:50;2.97;;;2.00;;
75071;SDS011;63651;55.728;38.022;2023-11-21T08:14:51;4.18;;;2.03;;
75071;SDS011;63651;55.728;38.022;2023-11-21T08:19:52;2.90;;;1.90;;
75071;SDS011;63651;55.728;38.022;2023-11-21T08:24:53;2.97;;;1.70;;
75071;SDS011;63651;55.728;38.022;2023-11-21T08:29:56;8.52;;;5.15;;
75071;SDS011;63651;55.728;38.022;2023-11-21T08:34:58;9.63;;;5.95;;
75071;SDS011;63651;55.728;38.022;2023-11-21T08:39:59;4.18;;;2.67;;
75071;SDS011;63651;55.728;38.022;2023-11-21T08:45:00;3.47;;;2.42;;
75071;SDS011;63651;55.728;38.022;2023-11-21T08:50:02;2.83;;;1.85;;
75071;SDS011;63651;55.728;38.022;2023-11-21T08:55:04;2.85;;;1.83;;
75071;SDS011;63651;55.728;38.022;2023-11-21T09:00:08;2.42;;;1.33;;
75071;SDS011;63651;55.728;38.022;2023-11-21T09:05:13;4.55;;;1.92;;
75071;SDS011;63651;55.728;38.022;2023-11-21T09:10:15;2.85;;;1.77;;
75071;SDS011;63651;55.728;38.022;2023-11-21T09:15:16;2.50;;;1.85;;
75071;SDS011;63651;55.728;38.022;2023-11-21T09:20:17;2.13;;;1.77;;
75071;SDS011;63651;55.728;38.022;2023-11-21T09:25:18;2.80;;;1.67;;
75071;SDS011;63651;55.728;38.022;2023-11-21T09:30:20;2.17;;;1.63;;
75071;SDS011;63651;55.728;38.022;2023-11-21T09:35:21;2.67;;;1.77;;
75071;SDS011;63651;55.728;38.022;2023-11-21T09:40:22;2.60;;;1.85;;
75071;SDS011;63651;55.728;38.022;2023-11-21T09:45:27;3.00;;;1.70;;
75071;SDS011;63651;55.728;38.022;2023-11-21T09:50:32;2.25;;;1.70;;
75071;SDS011;63651;55.728;38.022;2023-11-21T09:55:34;3.50;;;2.00;;
75071;SDS011;63651;55.728;38.022;2023-11-21T10:00:39;2.08;;;1.40;;
75071;SDS011;63651;55.728;38.022;2023-11-21T10:05:46;2.25;;;1.70;;
75071;SDS011;63651;55.728;38.022;2023-11-21T10:10:51;3.28;;;1.63;;
75071;SDS011;63651;55.728;38.022;2023-11-21T10:15:54;3.15;;;1.95;;
75071;SDS011;63651;55.728;38.022;2023-11-21T10:20:55;11.02;;;6.95;;
75071;SDS011;63651;55.728;38.022;2023-11-21T10:25:57;3.75;;;2.63;;
75071;SDS011;63651;55.728;38.022;2023-11-21T10:30:59;2.90;;;2.10;;
75071;SDS011;63651;55.728;38.022;2023-11-21T10:36:01;3.65;;;2.22;;
75071;SDS011;63651;55.728;38.022;2023-11-21T10:41:03;2.83;;;2.13;;
75071;SDS011;63651;55.728;38.022;2023-11-21T10:46:07;4.13;;;2.22;;
75071;SDS011;63651;55.728;38.022;2023-11-21T10:51:09;4.07;;;2.80;;
75071;SDS011;63651;55.728;38.022;2023-11-21T10:56:10;3.72;;;2.72;;
75071;SDS011;63651;55.728;38.022;2023-11-21T11:01:18;5.85;;;3.30;;
75071;SDS011;63651;55.728;38.022;2023-11-21T11:06:24;4.78;;;2.85;;
75071;SDS011;63651;55.728;38.022;2023-11-21T11:11:27;5.05;;;2.88;;
75071;SDS011;63651;55.728;38.022;2023-11-21T11:16:30;4.68;;;3.00;;
75071;SDS011;63651;55.728;38.022;2023-11-21T11:21:53;3.60;;;2.50;;
75071;SDS011;63651;55.728;38.022;2023-11-21T11:38:18;3.75;;;2.55;;
75071;SDS011;63651;55.728;38.022;2023-11-21T11:43:24;4.32;;;2.72;;
75071;SDS011;63651;55.728;38.022;2023-11-21T11:48:26;3.92;;;2.28;;
75071;SDS011;63651;55.728;38.022;2023-11-21T11:53:27;3.60;;;2.42;;
75071;SDS011;63651;55.728;38.022;2023-11-21T11:58:38;3.22;;;2.15;;
75071;SDS011;63651;55.728;38.022;2023-11-21T12:03:39;9.63;;;6.32;;
75071;SDS011;63651;55.728;38.022;2023-11-21T12:08:41;3.88;;;2.78;;
75071;SDS011;63651;55.728;38.022;2023-11-21T12:13:42;4.43;;;1.90;;
75071;SDS011;63651;55.728;38.022;2023-11-21T12:18:43;2.55;;;2.35;;
75071;SDS011;63651;55.728;38.022;2023-11-21T12:23:44;2.88;;;2.50;;
75071;SDS011;63651;55.728;38.022;2023-11-21T12:28:51;2.67;;;2.20;;
75071;SDS011;63651;55.728;38.022;2023-11-21T12:33:56;3.10;;;2.00;;
75071;SDS011;63651;55.728;38.022;2023-11-21T12:38:58;3.33;;;1.95;;
75071;SDS011;63651;55.728;38.022;2023-11-21T12:43:59;2.72;;;1.95;;
75071;SDS011;63651;55.728;38.022;2023-11-21T12:49:00;3.63;;;1.92;;
75071;SDS011;63651;55.728;38.022;2023-11-21T12:54:01;3.25;;;2.00;;
75071;SDS011;63651;55.728;38.022;2023-11-21T12:59:02;3.67;;;1.95;;
75071;SDS011;63651;55.728;38.022;2023-11-21T13:04:07;2.67;;;1.70;;
75071;SDS011;63651;55.728;38.022;2023-11-21T13:09:11;3.55;;;1.73;;
75071;SDS011;63651;55.728;38.022;2023-11-21T13:14:13;3.65;;;1.80;;
75071;SDS011;63651;55.728;38.022;2023-11-21T13:19:15;4.82;;;1.90;;
75071;SDS011;63651;55.728;38.022;2023-11-21T13:24:16;2.50;;;2.00;;
75071;SDS011;63651;55.728;38.022;2023-11-21T13:29:18;7.43;;;3.85;;
75071;SDS011;63651;55.728;38.022;2023-11-21T13:34:21;4.10;;;3.00;;
75071;SDS011;63651;55.728;38.022;2023-11-21T13:39:23;3.03;;;2.50;;
75071;SDS011;63651;55.728;38.022;2023-11-21T13:44:24;3.22;;;1.98;;
75071;SDS011;63651;55.728;38.022;2023-11-21T13:49:35;2.88;;;1.77;;
75071;SDS011;63651;55.728;38.022;2023-11-21T13:54:41;3.00;;;1.85;;
75071;SDS011;63651;55.728;38.022;2023-11-21T13:59:42;2.83;;;1.70;;
75071;SDS011;63651;55.728;38.022;2023-11-21T14:04:44;2.58;;;1.75;;
75071;SDS011;63651;55.728;38.022;2023-11-21T14:10:04;2.38;;;2.00;;
75071;SDS011;63651;55.728;38.022;2023-11-21T14:15:08;3.30;;;2.00;;
75071;SDS011;63651;55.728;38.022;2023-11-21T14:20:12;3.17;;;2.10;;
75071;SDS011;63651;55.728;38.022;2023-11-21T14:25:16;3.25;;;1.67;;
75071;SDS011;63651;55.728;38.022;2023-11-21T14:30:18;2.45;;;1.80;;
75071;SDS011;63651;55.728;38.022;2023-11-21T14:35:21;2.25;;;1.70;;
75071;SDS011;63651;55.728;38.022;2023-11-21T14:40:23;2.33;;;1.65;;
75071;SDS011;63651;55.728;38.022;2023-11-21T14:45:25;2.70;;;1.77;;
75071;SDS011;63651;55.728;38.022;2023-11-21T14:50:27;3.28;;;1.58;;
75071;SDS011;63651;55.728;38.022;2023-11-21T14:55:43;2.00;;;1.73;;
75071;SDS011;63651;55.728;38.022;2023-11-21T15:00:50;2.53;;;1.80;;
75071;SDS011;63651;55.728;38.022;2023-11-21T15:05:52;3.17;;;2.05;;
75071;SDS011;63651;55.728;38.022;2023-11-21T15:10:54;2.80;;;1.85;;
75071;SDS011;63651;55.728;38.022;2023-11-21T15:15:56;3.15;;;1.85;;
75071;SDS011;63651;55.728;38.022;2023-11-21T15:20:58;2.30;;;1.33;;
75071;SDS011;63651;55.728;38.022;2023-11-21T15:25:59;9.05;;;5.07;;
75071;SDS011;63651;55.728;38.022;2023-11-21T15:31:00;4.32;;;2.97;;
75071;SDS011;63651;55.728;38.022;2023-11-21T15:36:03;4.18;;;2.88;;
75071;SDS011;63651;55.728;38.022;2023-11-21T15:41:05;3.80;;;2.40;;
75071;SDS011;63651;55.728;38.022;2023-11-21T15:46:09;3.38;;;1.90;;
75071;SDS011;63651;55.728;38.022;2023-11-21T15:51:10;3.58;;;1.98;;
75071;SDS011;63651;55.728;38.022;2023-11-21T15:56:13;2.65;;;1.85;;
75071;SDS011;63651;55.728;38.022;2023-11-21T16:01:14;2.80;;;1.70;;
75071;SDS011;63651;55.728;38.022;2023-11-21T16:06:15;4.13;;;1.85;;
75071;SDS011;63651;55.728;38.022;2023-11-21T16:11:17;3.28;;;1.58;;
75071;SDS011;63651;55.728;38.022;2023-11-21T16:16:20;5.45;;;1.85;;
75071;SDS011;63651;55.728;38.022;2023-11-21T16:21:21;3.65;;;1.70;;
75071;SDS011;63651;55.728;38.022;2023-11-21T16:26:23;3.30;;;1.40;;
75071;SDS011;63651;55.728;38.022;2023-11-21T16:31:24;3.28;;;1.70;;
75071;SDS011;63651;55.728;38.022;2023-11-21T16:36:25;3.38;;;1.58;;
75071;SDS011;63651;55.728;38.022;2023-11-21T16:41:26;2.55;;;1.75;;
75071;SDS011;63651;55.728;38.022;2023-11-21T16:46:27;2.33;;;1.67;;
75071;SDS011;63651;55.728;38.022;2023-11-21T16:51:28;2.50;;;1.90;;
75071;SDS011;63651;55.728;38.022;2023-11-21T16:56:30;2.63;;;1.40;;
75071;SDS011;63651;55.728;38.022;2023-11-21T17:01:31;3.70;;;1.52;;
75071;SDS011;63651;55.728;38.022;2023-11-21T17:06:32;3.30;;;1.70;;
75071;SDS011;63651;55.728;38.022;2023-11-21T17:11:33;2.70;;;1.75;;
75071;SDS011;63651;55.728;38.022;2023-11-21T17:16:34;2.10;;;1.55;;
75071;SDS011;63651;55.728;38.022;2023-11-21T17:21:36;2.38;;;1.65;;
75071;SDS011;63651;55.728;38.022;2023-11-21T17:26:37;2.65;;;1.30;;
75071;SDS011;63651;55.728;38.022;2023-11-21T17:31:38;14.90;;;2.10;;
75071;SDS011;63651;55.728;38.022;2023-11-21T17:36:40;1.88;;;1.35;;
75071;SDS011;63651;55.728;38.022;2023-11-21T17:41:41;2.05;;;1.60;;
75071;SDS011;63651;55.728;38.022;2023-11-21T17:46:42;3.83;;;1.63;;
75071;SDS011;63651;55.728;38.022;2023-11-21T17:51:43;2.15;;;1.50;;
75071;SDS011;63651;55.728;38.022;2023-11-21T17:56:46;3.05;;;1.73;;
75071;SDS011;63651;55.728;38.022;2023-11-21T18:01:48;3.58;;;2.00;;
75071;SDS011;63651;55.728;38.022;2023-11-21T18:06:49;2.65;;;1.60;;
75071;SDS011;63651;55.728;38.022;2023-11-21T18:11:50;2.25;;;1.65;;
75071;SDS011;63651;55.728;38.022;2023-11-21T18:16:51;2.65;;;1.42;;
75071;SDS011;63651;55.728;38.022;2023-11-21T18:21:52;2.35;;;1.48;;
75071;SDS011;63651;55.728;38.022;2023-11-21T18:26:53;3.28;;;1.60;;
75071;SDS011;63651;55.728;38.022;2023-11-21T18:31:54;3.22;;;1.98;;
75071;SDS011;63651;55.728;38.022;2023-11-21T18:36:56;2.65;;;1.48;;
75071;SDS011;63651;55.728;38.022;2023-11-21T18:41:57;2.20;;;1.55;;
75071;SDS011;63651;55.728;38.022;2023-11-21T18:46:59;2.42;;;1.80;;
75071;SDS011;63651;55.728;38.022;2023-11-21T18:52:00;2.00;;;1.50;;
75071;SDS011;63651;55.728;38.022;2023-11-21T18:57:03;3.42;;;1.98;;
75071;SDS011;63651;55.728;38.022;2023-11-21T19:02:04;1.80;;;1.42;;
75071;SDS011;63651;55.728;38.022;2023-11-21T19:07:09;1.83;;;1.33;;
75071;SDS011;63651;55.728;38.022;2023-11-21T19:12:10;2.97;;;1.55;;
75071;SDS011;63651;55.728;38.022;2023-11-21T19:17:14;2.75;;;1.70;;
75071;SDS011;63651;55.728;38.022;2023-11-21T19:22:15;3.25;;;2.10;;
75071;SDS011;63651;55.728;38.022;2023-11-21T19:27:16;3.58;;;1.70;;
75071;SDS011;63651;55.728;38.022;2023-11-21T19:32:17;4.35;;;1.92;;
75071;SDS011;63651;55.728;38.022;2023-11-21T19:37:18;2.17;;;1.60;;
75071;SDS011;63651;55.728;38.022;2023-11-21T19:42:19;2.85;;;1.77;;
75071;SDS011;63651;55.728;38.022;2023-11-21T19:47:21;2.30;;;1.52;;
75071;SDS011;63651;55.728;38.022;2023-11-21T19:52:22;3.55;;;1.60;;
75071;SDS011;63651;55.728;38.022;2023-11-21T19:57:26;2.40;;;1.45;;
75071;SDS011;63651;55.728;38.022;2023-11-21T20:02:27;2.47;;;1.60;;
75071;SDS011;63651;55.728;38.022;2023-11-21T20:07:29;3.30;;;2.40;;
75071;SDS011;63651;55.728;38.022;2023-11-21T20:12:32;2.78;;;1.90;;
75071;SDS011;63651;55.728;38.022;2023-11-21T20:17:33;3.15;;;1.90;;
75071;SDS011;63651;55.728;38.022;2023-11-21T20:22:34;2.50;;;1.73;;
75071;SDS011;63651;55.728;38.022;2023-11-21T20:27:36;2.58;;;1.55;;
75071;SDS011;63651;55.728;38.022;2023-11-21T20:32:37;2.55;;;1.70;;
75071;SDS011;63651;55.728;38.022;2023-11-21T20:37:38;2.47;;;1.40;;
75071;SDS011;63651;55.728;38.022;2023-11-21T20:42:39;2.55;;;1.55;;
75071;SDS011;63651;55.728;38.022;2023-11-21T20:47:43;2.70;;;1.60;;
75071;SDS011;63651;55.728;38.022;2023-11-21T20:52:44;2.70;;;1.50;;
75071;SDS011;63651;55.728;38.022;2023-11-21T20:57:45;2.97;;;1.42;;
75071;SDS011;63651;55.728;38.022;2023-11-21T21:02:46;9.35;;;1.98;;
75071;SDS011;63651;55.728;38.022;2023-11-21T21:07:50;2.75;;;1.50;;
75071;SDS011;63651;55.728;38.022;2023-11-21T21:12:52;2.30;;;1.40;;
75071;SDS011;63651;55.728;38.022;2023-11-21T21:17:54;2.60;;;1.50;;
75071;SDS011;63651;55.728;38.022;2023-11-21T21:22:55;3.50;;;1.40;;
75071;SDS011;63651;55.728;38.022;2023-11-21T21:27:57;3.10;;;1.40;;
75071;SDS011;63651;55.728;38.022;2023-11-21T21:32:58;2.50;;;1.30;;
75071;SDS011;63651;55.728;38.022;2023-11-21T21:38:00;2.67;;;1.60;;
75071;SDS011;63651;55.728;38.022;2023-11-21T21:43:04;2.08;;;1.42;;
75071;SDS011;63651;55.728;38.022;2023-11-21T21:48:06;1.80;;;1.02;;
75071;SDS011;63651;55.728;38.022;2023-11-21T21:53:08;2.15;;;1.25;;
75071;SDS011;63651;55.728;38.022;2023-11-21T21:58:12;2.85;;;1.30;;
75071;SDS011;63651;55.728;38.022;2023-11-21T22:03:14;2.17;;;1.27;;
75071;SDS011;63651;55.728;38.022;2023-11-21T22:08:15;1.70;;;1.10;;
75071;SDS011;63651;55.728;38.022;2023-11-21T22:13:17;2.10;;;1.20;;
75071;SDS011;63651;55.728;38.022;2023-11-21T22:18:19;2.15;;;1.23;;
75071;SDS011;63651;55.728;38.022;2023-11-21T22:23:20;3.05;;;1.10;;
75071;SDS011;63651;55.728;38.022;2023-11-21T22:28:21;2.08;;;1.20;;
75071;SDS011;63651;55.728;38.022;2023-11-21T22:33:22;2.72;;;1.27;;
75071;SDS011;63651;55.728;38.022;2023-11-21T22:38:24;2.60;;;0.90;;
75071;SDS011;63651;55.728;38.022;2023-11-21T22:43:25;1.30;;;1.20;;
75071;SDS011;63651;55.728;38.022;2023-11-21T22:48:26;1.90;;;1.20;;
75071;SDS011;63651;55.728;38.022;2023-11-21T22:53:27;2.28;;;1.25;;
75071;SDS011;63651;55.728;38.022;2023-11-21T22:58:28;1.88;;;1.25;;
75071;SDS011;63651;55.728;38.022;2023-11-21T23:03:29;1.95;;;1.02;;
75071;SDS011;63651;55.728;38.022;2023-11-21T23:08:30;1.63;;;0.98;;
75071;SDS011;63651;55.728;38.022;2023-11-21T23:13:31;2.30;;;1.25;;
75071;SDS011;63651;55.728;38.022;2023-11-21T23:18:33;1.88;;;1.10;;
75071;SDS011;63651;55.728;38.022;2023-11-21T23:23:34;1.30;;;1.02;;
75071;SDS011;63651;55.728;38.022;2023-11-21T23:28:35;1.90;;;1.20;;
75071;SDS011;63651;55.728;38.022;2023-11-21T23:33:36;1.80;;;1.05;;
75071;SDS011;63651;55.728;38.022;2023-11-21T23:38:37;1.17;;;0.93;;
75071;SDS011;63651;55.728;38.022;2023-11-21T23:43:42;1.90;;;1.20;;
75071;SDS011;63651;55.728;38.022;2023-11-21T23:48:43;1.50;;;1.10;;
75071;SDS011;63651;55.728;38.022;2023-11-21T23:53:44;1.95;;;0.93;;
75071;SDS011;63651;55.728;38.022;2023-11-21T23:58:45;1.88;;;1.20;;
